Time;durP1;ratioP1;P1;durP2;ratioP2;P2;SDS_P1;SDS_P2;PMS_P1;PMS_P2;Temp;Humidity;BMP_temperature;BMP_pressure;BME280_temperature;BME280_humidity;BME280_pressure;Samples;Min_cycle;Max_cycle;Signal;HPM_P1;HPM_P2
2021/11/08 00:01:52;;;;;;;68.20;7.05;;;8.30;99.90;;;;;;5095290;28;20107;-67
2021/11/08 00:04:19;;;;;;;52.08;6.45;;;8.30;99.90;;;;;;5094274;28;20483;-67
2021/11/08 00:06:45;;;;;;;64.55;6.85;;;8.30;99.90;;;;;;5093393;28;20111;-67
2021/11/08 00:09:11;;;;;;;81.13;9.98;;;8.30;99.90;;;;;;5095044;28;20066;-67
2021/11/08 00:11:38;;;;;;;85.45;8.23;;;8.30;99.90;;;;;;5095102;28;20095;-67
2021/11/08 00:14:03;;;;;;;80.65;7.70;;;8.30;99.90;;;;;;5094636;28;20027;-67
2021/11/08 00:16:35;;;;;;;66.05;8.27;;;8.40;99.90;;;;;;5094893;28;20026;-67
2021/11/08 00:21:44;;;;;;;60.10;8.00;;;8.50;99.90;;;;;;5094897;28;20020;-67
2021/11/08 00:24:12;;;;;;;87.18;7.28;;;8.60;99.90;;;;;;5093192;28;20039;-67
2021/11/08 00:26:38;;;;;;;59.53;7.97;;;8.60;99.90;;;;;;5094838;28;20024;-67
2021/11/08 00:29:04;;;;;;;56.28;6.32;;;8.70;99.90;;;;;;5094295;28;20080;-67
2021/11/08 00:31:30;;;;;;;73.40;8.13;;;8.70;99.90;;;;;;5094580;28;20081;-67
2021/11/08 00:33:55;;;;;;;62.58;7.55;;;8.70;99.90;;;;;;5094101;28;20031;-67
2021/11/08 00:36:21;;;;;;;71.90;8.15;;;8.70;99.90;;;;;;5094372;28;20024;-67
2021/11/08 00:38:46;;;;;;;63.53;7.63;;;8.70;99.90;;;;;;5094056;28;20100;-67
2021/11/08 00:41:12;;;;;;;54.85;6.78;;;8.60;99.90;;;;;;5094852;28;20055;-67
2021/11/08 00:43:38;;;;;;;55.60;6.70;;;8.60;99.90;;;;;;5093807;28;20421;-67
2021/11/08 00:46:03;;;;;;;63.00;9.68;;;8.60;99.90;;;;;;5087410;28;20032;-67
2021/11/08 00:48:34;;;;;;;48.80;6.93;;;8.60;99.90;;;;;;5073832;28;20024;-67
2021/11/08 00:50:59;;;;;;;60.47;7.00;;;8.50;99.90;;;;;;5083525;28;20046;-67
2021/11/08 00:53:25;;;;;;;63.75;6.18;;;8.50;99.90;;;;;;5088813;28;20028;-68
2021/11/08 00:55:52;;;;;;;60.85;7.55;;;8.40;99.90;;;;;;5093923;28;20031;-67
2021/11/08 00:58:34;;;;;;;51.08;5.20;;;8.40;99.90;;;;;;5093665;28;20076;-68
2021/11/08 01:01:04;;;;;;;52.15;7.18;;;8.40;99.90;;;;;;5093889;28;20051;-67
2021/11/08 01:03:37;;;;;;;56.42;7.43;;;8.40;99.90;;;;;;5093891;28;20029;-67
2021/11/08 01:06:04;;;;;;;46.55;5.47;;;8.50;99.90;;;;;;5094017;28;20027;-67
2021/11/08 01:08:30;;;;;;;39.03;5.60;;;8.40;99.90;;;;;;5093714;28;20118;-67
2021/11/08 01:10:56;;;;;;;39.58;5.15;;;8.30;99.90;;;;;;5092950;28;20035;-67
2021/11/08 01:13:21;;;;;;;48.72;5.28;;;8.20;99.90;;;;;;5093922;28;20036;-67
2021/11/08 01:15:47;;;;;;;54.38;5.15;;;8.10;99.90;;;;;;5093515;28;20452;-67
2021/11/08 01:18:13;;;;;;;61.83;7.38;;;8.10;99.90;;;;;;5093627;28;20021;-68
2021/11/08 01:20:45;;;;;;;43.50;5.32;;;8.20;99.90;;;;;;5092347;28;20028;-67
2021/11/08 01:23:13;;;;;;;46.03;5.78;;;8.20;99.90;;;;;;5093512;28;20038;-68
2021/11/08 01:25:39;;;;;;;40.72;4.95;;;8.10;99.90;;;;;;5093487;28;20453;-68
2021/11/08 01:28:06;;;;;;;41.25;5.00;;;8.10;99.90;;;;;;5092603;28;20486;-67
2021/11/08 01:30:32;;;;;;;56.03;6.25;;;8.00;99.90;;;;;;5074524;28;20056;-67
2021/11/08 01:33:03;;;;;;;72.47;6.45;;;8.00;99.90;;;;;;5090991;28;20024;-68
2021/11/08 01:35:37;;;;;;;49.30;6.40;;;7.90;99.90;;;;;;5093322;28;20062;-68
2021/11/08 01:38:11;;;;;;;43.35;4.53;;;7.90;99.90;;;;;;5089771;28;20048;-68
2021/11/08 01:40:39;;;;;;;42.72;6.25;;;7.80;99.90;;;;;;5093459;28;20020;-67
2021/11/08 01:43:05;;;;;;;28.35;5.40;;;7.70;99.90;;;;;;5093259;28;20110;-67
2021/11/08 01:45:31;;;;;;;44.13;3.95;;;7.70;99.90;;;;;;5092667;28;20055;-67
2021/11/08 01:47:57;;;;;;;38.65;4.32;;;7.90;99.90;;;;;;5093506;28;20028;-67
2021/11/08 01:50:24;;;;;;;27.00;3.33;;;7.90;99.90;;;;;;5093295;28;20024;-67
2021/11/08 01:52:51;;;;;;;36.88;3.92;;;7.90;99.90;;;;;;5091714;28;20471;-67
2021/11/08 01:55:17;;;;;;;39.80;4.85;;;7.90;99.90;;;;;;5092540;28;20074;-67
2021/11/08 01:57:44;;;;;;;42.83;4.30;;;7.90;99.90;;;;;;5087246;28;20032;-67
2021/11/08 02:00:11;;;;;;;43.05;4.10;;;7.80;99.90;;;;;;5075558;28;20022;-67
2021/11/08 02:02:37;;;;;;;29.95;5.60;;;7.90;99.90;;;;;;5092999;28;20028;-68
2021/11/08 02:05:04;;;;;;;35.67;3.78;;;7.80;99.90;;;;;;5093066;28;20379;-68
2021/11/08 02:07:30;;;;;;;40.20;3.47;;;7.80;99.90;;;;;;5090532;28;20020;-67
2021/11/08 02:09:56;;;;;;;31.15;4.45;;;7.90;99.90;;;;;;5074688;28;20357;-68
2021/11/08 02:12:21;;;;;;;44.50;3.67;;;7.80;99.90;;;;;;5072243;28;20055;-67
2021/11/08 02:14:47;;;;;;;42.13;4.47;;;7.90;99.90;;;;;;5087729;28;20024;-67
2021/11/08 02:17:13;;;;;;;45.90;4.05;;;7.90;99.90;;;;;;5092999;28;20024;-68
2021/11/08 02:19:39;;;;;;;37.40;3.85;;;7.90;99.90;;;;;;5090990;28;20399;-67
2021/11/08 02:22:05;;;;;;;34.30;3.95;;;7.90;99.90;;;;;;5092964;28;20020;-68
2021/11/08 02:24:33;;;;;;;28.70;4.00;;;7.90;99.90;;;;;;5074798;28;20033;-67
2021/11/08 02:26:59;;;;;;;42.58;4.90;;;7.90;99.90;;;;;;5073230;28;20024;-68
2021/11/08 02:29:24;;;;;;;44.88;3.90;;;7.90;99.90;;;;;;5087520;28;20518;-68
2021/11/08 02:31:50;;;;;;;21.73;3.50;;;8.10;99.90;;;;;;5094737;28;20046;-68
2021/11/08 02:34:17;;;;;;;31.00;4.25;;;8.10;99.90;;;;;;5090764;28;20032;-68
2021/11/08 02:36:43;;;;;;;30.52;3.85;;;8.10;99.90;;;;;;5076327;28;20029;-67
2021/11/08 02:39:15;;;;;;;39.55;4.72;;;8.20;99.90;;;;;;5083425;28;20106;-67
2021/11/08 02:41:41;;;;;;;47.67;3.85;;;8.30;99.90;;;;;;5096622;28;20028;-68
2021/11/08 02:44:07;;;;;;;45.42;4.53;;;8.30;99.90;;;;;;5096680;28;20027;-67
2021/11/08 02:46:38;;;;;;;31.65;3.70;;;8.40;99.90;;;;;;5096393;28;20049;-68
2021/11/08 02:49:06;;;;;;;30.58;3.90;;;8.40;99.90;;;;;;5096087;28;20029;-67
2021/11/08 02:51:31;;;;;;;35.35;3.67;;;8.50;99.90;;;;;;5094285;28;20031;-67
2021/11/08 02:54:03;;;;;;;30.33;3.47;;;8.50;99.90;;;;;;5096477;28;20383;-68
2021/11/08 02:56:29;;;;;;;34.22;4.03;;;8.50;99.90;;;;;;5096612;28;20121;-67
2021/11/08 02:58:55;;;;;;;41.03;4.10;;;8.50;99.90;;;;;;5095833;28;20102;-67
2021/11/08 03:01:23;;;;;;;38.38;4.68;;;8.50;99.90;;;;;;5096485;28;20073;-67
2021/11/08 03:04:00;;;;;;;26.95;3.70;;;8.60;99.90;;;;;;5096343;28;20038;-67
2021/11/08 03:06:33;;;;;;;27.52;3.47;;;8.60;99.90;;;;;;5096699;28;20463;-67
2021/11/08 03:09:11;;;;;;;24.40;3.17;;;8.60;99.90;;;;;;5096383;28;20457;-67
2021/11/08 03:11:37;;;;;;;25.55;2.55;;;8.60;99.90;;;;;;5095289;28;20356;-66
2021/11/08 03:14:07;;;;;;;25.08;2.75;;;8.60;99.90;;;;;;5095710;28;20032;-67
2021/11/08 03:19:45;;;;;;;33.17;4.18;;;8.60;99.90;;;;;;5095930;28;20356;-67
2021/11/08 03:22:11;;;;;;;40.75;3.47;;;8.60;99.90;;;;;;5093904;28;20035;-67
2021/11/08 03:24:39;;;;;;;30.13;3.65;;;8.40;99.90;;;;;;5095276;28;20040;-67
2021/11/08 03:27:17;;;;;;;25.20;2.67;;;8.50;99.90;;;;;;5095944;28;20093;-67
2021/11/08 03:29:43;;;;;;;35.25;3.05;;;8.50;99.90;;;;;;5096031;28;20051;-67
2021/11/08 03:32:11;;;;;;;30.67;3.20;;;8.60;99.90;;;;;;5095656;28;20483;-67
2021/11/08 03:34:39;;;;;;;24.80;2.95;;;8.60;99.90;;;;;;5094915;28;20024;-67
2021/11/08 03:37:05;;;;;;;30.23;3.40;;;8.70;99.90;;;;;;5095541;28;20020;-67
2021/11/08 03:39:31;;;;;;;33.00;3.00;;;8.60;99.90;;;;;;5095783;28;20020;-67
2021/11/08 03:41:56;;;;;;;33.20;3.40;;;8.60;99.90;;;;;;5094923;28;20042;-67
2021/11/08 03:44:22;;;;;;;37.22;3.53;;;8.50;99.90;;;;;;5094780;28;20035;-67
2021/11/08 03:46:48;;;;;;;33.03;2.70;;;8.50;99.90;;;;;;5095920;28;20421;-67
2021/11/08 03:49:14;;;;;;;42.10;4.95;;;8.40;99.90;;;;;;5095306;28;20027;-67
2021/11/08 03:51:39;;;;;;;45.88;3.90;;;8.40;99.90;;;;;;5095789;28;20028;-67
2021/11/08 03:54:06;;;;;;;15.93;2.28;;;8.50;99.90;;;;;;5094888;28;20391;-68
2021/11/08 03:56:32;;;;;;;23.98;3.30;;;8.50;99.90;;;;;;5095173;28;20016;-67
2021/11/08 03:59:00;;;;;;;29.73;5.03;;;8.60;99.90;;;;;;5095371;28;20024;-67
2021/11/08 04:01:27;;;;;;;39.72;3.08;;;8.60;99.90;;;;;;5094798;28;20016;-67
2021/11/08 04:03:53;;;;;;;25.88;3.47;;;8.60;99.90;;;;;;5094946;28;20020;-67
2021/11/08 04:06:18;;;;;;;45.13;3.95;;;8.70;99.90;;;;;;5095154;28;20024;-67
2021/11/08 04:08:44;;;;;;;32.65;3.38;;;8.60;99.90;;;;;;5094374;28;20135;-67
2021/11/08 04:11:09;;;;;;;22.75;3.38;;;8.70;99.90;;;;;;5094883;28;20027;-67
2021/11/08 04:13:37;;;;;;;27.35;3.35;;;8.70;99.90;;;;;;5094997;28;20106;-68
2021/11/08 04:16:05;;;;;;;30.15;4.05;;;8.70;99.90;;;;;;5094999;28;20390;-68
2021/11/08 04:18:31;;;;;;;38.63;3.30;;;8.70;99.90;;;;;;5094251;28;20050;-67
2021/11/08 04:20:58;;;;;;;27.35;3.33;;;8.70;99.90;;;;;;5094918;28;20427;-67
2021/11/08 04:23:24;;;;;;;23.30;3.03;;;8.70;99.90;;;;;;5107241;28;20378;-67
2021/11/08 04:25:52;;;;;;;18.17;2.78;;;8.70;99.90;;;;;;5095830;28;20044;-67
2021/11/08 04:28:17;;;;;;;26.65;2.85;;;8.70;99.90;;;;;;5094311;28;20360;-67
2021/11/08 04:30:44;;;;;;;24.40;2.53;;;8.70;99.90;;;;;;5094690;28;20098;-67
2021/11/08 04:33:20;;;;;;;22.70;2.28;;;8.60;99.90;;;;;;5093802;28;20016;-68
2021/11/08 04:35:56;;;;;;;23.50;2.95;;;8.50;99.90;;;;;;5094442;28;20020;-68
2021/11/08 04:41:05;;;;;;;29.77;3.10;;;8.50;99.90;;;;;;5094318;28;20020;-68
2021/11/08 04:46:42;;;;;;;34.95;2.78;;;8.50;99.90;;;;;;5094439;28;20024;-68
2021/11/08 04:54:27;;;;;;;24.70;2.90;;;8.60;99.90;;;;;;5092916;28;20376;-67
2021/11/08 04:57:17;;;;;;;39.03;5.53;;;8.70;99.90;;;;;;5093787;28;20414;-67
2021/11/08 05:22:03;;;;;;;26.80;3.10;;;8.70;99.90;;;;;;5093679;28;20031;-67
2021/11/08 05:30:07;;;;;;;;;;;8.60;99.90;;;;;;5074295;28;20027;-67
2021/11/08 05:32:41;;;;;;;30.25;3.22;;;8.70;99.90;;;;;;5073206;28;19927;-67
2021/11/08 05:35:10;;;;;;;23.80;2.88;;;8.60;99.90;;;;;;5072699;28;20028;-67
2021/11/08 05:37:37;;;;;;;29.85;3.35;;;8.60;99.90;;;;;;5073241;28;20017;-67
2021/11/08 05:40:08;;;;;;;19.52;3.13;;;8.60;99.90;;;;;;5089187;28;20024;-67
2021/11/08 05:42:34;;;;;;;23.35;3.40;;;8.70;99.90;;;;;;5076279;28;20016;-67
2021/11/08 05:45:01;;;;;;;39.78;4.07;;;8.80;99.90;;;;;;5085428;28;20107;-66
2021/11/08 05:47:27;;;;;;;42.83;5.28;;;8.80;99.90;;;;;;5091749;28;20475;-67
2021/11/08 05:49:53;;;;;;;23.08;3.30;;;8.80;99.90;;;;;;5093280;28;20429;-67
2021/11/08 05:52:18;;;;;;;38.08;4.82;;;8.80;99.90;;;;;;5083491;28;20043;-67
2021/11/08 05:54:46;;;;;;;27.27;3.42;;;8.80;99.90;;;;;;5088059;28;20483;-67
2021/11/08 06:49:04;;;;;;;;;;;7.60;99.90;;;;;;5096931;28;20030;-67
2021/11/08 06:51:23;;;;;;;20.60;2.75;;;7.50;99.90;;;;;;5096326;28;19911;-67
2021/11/08 06:53:50;;;;;;;18.20;2.30;;;7.40;99.90;;;;;;5094788;28;20024;-67
2021/11/08 06:56:24;;;;;;;17.10;2.22;;;7.40;99.90;;;;;;5096321;28;20016;-67
2021/11/08 06:58:49;;;;;;;16.02;2.35;;;7.40;99.90;;;;;;5083490;28;20199;-67
2021/11/08 07:01:15;;;;;;;18.10;2.05;;;7.30;99.90;;;;;;5075998;28;20103;-67
2021/11/08 07:03:41;;;;;;;15.77;2.20;;;7.30;99.90;;;;;;5091729;28;20387;-67
2021/11/08 07:06:07;;;;;;;11.93;2.20;;;7.20;99.90;;;;;;5096932;28;20420;-67
2021/11/08 07:08:33;;;;;;;23.90;2.63;;;7.20;99.90;;;;;;5080538;28;20020;-67
2021/11/08 07:10:58;;;;;;;13.88;2.13;;;7.20;99.90;;;;;;5081876;28;20043;-68
2021/11/08 07:13:24;;;;;;;22.88;3.08;;;7.20;99.90;;;;;;5075748;28;20033;-67
2021/11/08 07:15:50;;;;;;;10.73;1.98;;;7.20;99.90;;;;;;5075651;28;20020;-68
2021/11/08 07:18:16;;;;;;;12.80;2.05;;;7.30;99.90;;;;;;5074852;28;20510;-67
2021/11/08 07:20:42;;;;;;;27.25;3.50;;;7.40;99.90;;;;;;5098758;28;20058;-67
2021/11/08 07:23:08;;;;;;;36.80;4.10;;;7.60;99.90;;;;;;5116118;28;20060;-67
2021/11/08 07:25:33;;;;;;;32.47;3.90;;;7.70;99.90;;;;;;5116052;28;20074;-67
2021/11/08 07:28:00;;;;;;;21.77;3.03;;;7.80;99.90;;;;;;5116548;28;20026;-67
2021/11/08 07:30:27;;;;;;;17.10;2.63;;;7.80;99.90;;;;;;5116322;28;20117;-67
2021/11/08 07:32:52;;;;;;;22.58;3.00;;;7.80;99.90;;;;;;5115334;28;20114;-67
2021/11/08 07:35:18;;;;;;;14.65;2.50;;;7.80;99.90;;;;;;5116033;28;20483;-67
2021/11/08 07:37:44;;;;;;;18.10;2.70;;;7.80;99.90;;;;;;5115896;28;20023;-67
2021/11/08 07:40:11;;;;;;;18.55;1.75;;;7.70;99.90;;;;;;5115704;28;20391;-67
2021/11/08 07:42:36;;;;;;;11.60;2.10;;;7.70;99.90;;;;;;5115320;28;20031;-67
2021/11/08 07:45:02;;;;;;;17.08;2.13;;;7.70;99.90;;;;;;5115615;28;20016;-67
2021/11/08 07:47:28;;;;;;;12.05;2.13;;;7.80;99.90;;;;;;5115742;28;20031;-67
2021/11/08 07:49:53;;;;;;;12.15;2.20;;;7.80;99.90;;;;;;5114481;28;20015;-67
2021/11/08 07:52:19;;;;;;;7.53;1.98;;;7.80;99.90;;;;;;5080690;28;20054;-67
2021/11/08 07:54:45;;;;;;;13.82;2.03;;;7.90;99.90;;;;;;5076933;28;20033;-67
2021/11/08 07:57:11;;;;;;;9.45;2.00;;;7.90;99.90;;;;;;5074977;28;20438;-67
2021/11/08 07:59:36;;;;;;;26.17;2.75;;;7.90;99.90;;;;;;5073506;28;20020;-67
2021/11/08 08:02:03;;;;;;;32.80;2.92;;;7.90;99.90;;;;;;5074839;28;20107;-67
2021/11/08 08:04:29;;;;;;;25.38;2.88;;;8.00;99.90;;;;;;5083387;28;20399;-67
2021/11/08 08:06:55;;;;;;;34.67;4.43;;;8.10;99.90;;;;;;5094338;28;20471;-67
2021/11/08 08:09:20;;;;;;;28.40;3.20;;;8.00;99.90;;;;;;5093799;28;20036;-67
2021/11/08 08:11:47;;;;;;;21.20;3.33;;;8.00;99.90;;;;;;5074660;28;20459;-67
2021/11/08 08:14:14;;;;;;;25.73;2.70;;;7.90;99.90;;;;;;5074450;28;20066;-67
2021/11/08 08:16:40;;;;;;;32.40;3.60;;;7.90;99.90;;;;;;5107118;28;20027;-67
2021/11/08 08:19:05;;;;;;;21.08;3.38;;;7.90;99.90;;;;;;5114903;28;20482;-67
2021/11/08 08:21:31;;;;;;;25.20;2.97;;;8.00;99.90;;;;;;5102356;28;20099;-67
2021/11/08 08:24:02;;;;;;;29.48;3.95;;;8.00;99.90;;;;;;5094409;28;20024;-67
2021/11/08 08:26:31;;;;;;;25.98;3.28;;;8.20;99.90;;;;;;5094928;28;20031;-67
2021/11/08 08:29:02;;;;;;;42.20;3.45;;;8.20;99.90;;;;;;5100557;28;20371;-67
2021/11/08 08:31:28;;;;;;;30.13;3.25;;;8.30;99.90;;;;;;5115104;28;20110;-67
2021/11/08 08:33:54;;;;;;;24.40;3.00;;;8.50;99.90;;;;;;5114617;28;20110;-67
2021/11/08 08:36:19;;;;;;;35.08;3.63;;;8.60;99.90;;;;;;5114799;28;20016;-67
2021/11/08 08:38:46;;;;;;;21.13;2.47;;;8.70;99.90;;;;;;5113780;28;20019;-66
2021/11/08 08:41:12;;;;;;;10.00;2.00;;;8.80;99.90;;;;;;5114708;28;20029;-67
2021/11/08 08:43:37;;;;;;;28.92;3.28;;;8.80;99.90;;;;;;5114628;28;20019;-67
2021/11/08 08:46:03;;;;;;;21.45;2.53;;;8.80;99.90;;;;;;5114416;28;20053;-67
2021/11/08 08:48:30;;;;;;;30.75;4.05;;;8.80;99.90;;;;;;5114582;28;20031;-67
2021/11/08 08:50:57;;;;;;;28.20;3.60;;;8.90;99.90;;;;;;5114540;28;20031;-67
2021/11/08 08:53:23;;;;;;;28.10;3.25;;;9.00;99.90;;;;;;5113820;27;20065;-67
2021/11/08 08:55:48;;;;;;;26.55;2.25;;;9.10;99.90;;;;;;5114416;28;20021;-67
2021/11/08 08:58:14;;;;;;;19.02;2.40;;;9.10;99.90;;;;;;5114686;28;20439;-67
2021/11/08 09:00:44;;;;;;;14.65;2.58;;;9.20;99.90;;;;;;5114261;28;20023;-67
2021/11/08 09:03:10;;;;;;;36.88;4.38;;;9.30;99.90;;;;;;5114547;28;20050;-67
2021/11/08 09:05:36;;;;;;;35.28;2.92;;;9.50;99.90;;;;;;5099916;28;20450;-67
2021/11/08 09:08:02;;;;;;;31.83;4.03;;;9.60;99.90;;;;;;5093832;28;20056;-67
2021/11/08 09:10:31;;;;;;;20.88;2.63;;;9.80;99.90;;;;;;5092451;28;20479;-67
2021/11/08 09:12:57;;;;;;;44.85;3.92;;;9.80;99.90;;;;;;5093671;28;20111;-67
2021/11/08 09:15:25;;;;;;;33.35;3.95;;;9.80;99.90;;;;;;5092739;28;20532;-67
2021/11/08 09:17:51;;;;;;;34.08;3.85;;;9.90;99.90;;;;;;5093755;28;20525;-67
2021/11/08 09:20:17;;;;;;;27.75;3.35;;;9.90;99.90;;;;;;5090406;28;20028;-67
2021/11/08 09:22:44;;;;;;;44.20;4.65;;;10.00;99.90;;;;;;5093643;28;20103;-67
2021/11/08 09:25:11;;;;;;;23.48;3.42;;;10.00;99.90;;;;;;5079633;28;20390;-67
2021/11/08 09:27:37;;;;;;;20.17;3.75;;;10.00;99.90;;;;;;5073351;28;20028;-67
2021/11/08 09:30:05;;;;;;;31.77;3.40;;;10.10;99.90;;;;;;5091441;28;20043;-68
2021/11/08 09:32:31;;;;;;;35.95;4.28;;;10.10;99.90;;;;;;5094031;28;20536;-68
2021/11/08 09:34:57;;;;;;;30.40;3.03;;;10.30;99.90;;;;;;5093217;28;20122;-67
2021/11/08 09:37:25;;;;;;;28.88;3.53;;;10.40;99.90;;;;;;5093455;28;20090;-68
2021/11/08 09:39:51;;;;;;;29.33;3.55;;;10.60;99.90;;;;;;5092854;28;20016;-67
2021/11/08 09:42:18;;;;;;;25.77;3.20;;;10.70;99.90;;;;;;5092847;28;20024;-67
2021/11/08 09:44:44;;;;;;;26.35;2.88;;;10.90;99.90;;;;;;5104345;28;20023;-68
2021/11/08 09:47:10;;;;;;;14.73;2.38;;;10.90;99.90;;;;;;5113940;28;20023;-68
2021/11/08 09:49:39;;;;;;;29.95;3.60;;;10.90;99.90;;;;;;5113196;28;20066;-68
2021/11/08 09:52:05;;;;;;;20.38;3.20;;;10.80;99.90;;;;;;5113896;28;20024;-68
2021/11/08 09:54:34;;;;;;;24.15;3.05;;;10.80;99.90;;;;;;5113211;28;20031;-67
2021/11/08 09:57:02;;;;;;;26.25;2.50;;;10.70;99.90;;;;;;5113836;28;20148;-67
2021/11/08 09:59:31;;;;;;;23.80;2.75;;;10.90;99.90;;;;;;5112970;28;20494;-67
2021/11/08 10:01:57;;;;;;;18.17;3.63;;;10.80;99.90;;;;;;5113765;28;20024;-68
2021/11/08 10:04:23;;;;;;;24.13;2.65;;;10.90;99.90;;;;;;5113407;28;20030;-68
2021/11/08 10:06:50;;;;;;;22.85;2.67;;;11.00;99.90;;;;;;5113761;28;20081;-68
2021/11/08 10:09:19;;;;;;;18.77;2.35;;;10.90;99.90;;;;;;5112849;28;20031;-68
2021/11/08 10:11:48;;;;;;;22.02;2.60;;;11.10;99.90;;;;;;5113458;28;20032;-67
2021/11/08 10:14:15;;;;;;;18.48;2.40;;;11.30;99.90;;;;;;5113077;28;20031;-67
2021/11/08 10:16:42;;;;;;;23.27;4.38;;;11.30;99.90;;;;;;5112860;28;20429;-68
2021/11/08 10:19:13;;;;;;;20.35;2.80;;;11.50;99.90;;;;;;5113559;28;20030;-68
2021/11/08 10:21:49;;;;;;;19.40;2.17;;;11.80;99.90;;;;;;5106999;28;20036;-67
2021/11/08 10:24:20;;;;;;;30.05;3.13;;;11.80;99.90;;;;;;5090811;28;20050;-68
2021/11/08 10:26:46;;;;;;;22.58;3.17;;;11.70;99.90;;;;;;5113342;28;20471;-68
2021/11/08 10:29:17;;;;;;;14.13;2.28;;;11.70;99.90;;;;;;5097504;28;20066;-68
2021/11/08 10:31:55;;;;;;;5.78;2.00;;;11.60;99.90;;;;;;5093238;28;20028;-68
2021/11/08 10:34:22;;;;;;;14.52;2.00;;;11.90;99.90;;;;;;5088860;28;20516;-68
2021/11/08 10:36:56;;;;;;;14.02;2.30;;;12.10;99.90;;;;;;5092861;28;20428;-68
2021/11/08 10:39:22;;;;;;;14.20;2.75;;;12.20;99.90;;;;;;5093386;28;20375;-68
2021/11/08 10:41:48;;;;;;;15.50;2.45;;;12.40;99.90;;;;;;5092293;28;20016;-68
2021/11/08 10:44:22;;;;;;;6.25;1.70;;;12.50;99.90;;;;;;5091974;28;20016;-68
2021/11/08 10:46:54;;;;;;;12.82;2.63;;;12.70;99.90;;;;;;5073142;28;20078;-68
2021/11/08 10:49:24;;;;;;;14.48;2.72;;;12.60;99.90;;;;;;5073069;28;20064;-68
2021/11/08 10:51:53;;;;;;;14.18;2.30;;;12.90;99.90;;;;;;5111162;28;20024;-68
2021/11/08 10:54:23;;;;;;;5.45;1.55;;;13.20;99.90;;;;;;5116501;28;20494;-68
2021/11/08 10:56:58;;;;;;;10.45;2.13;;;13.40;99.90;;;;;;5116814;27;20101;-68
2021/11/08 10:59:32;;;;;;;8.80;1.98;;;13.40;99.90;;;;;;5114419;28;20030;-68
2021/11/08 11:02:00;;;;;;;6.68;1.83;;;13.30;99.90;;;;;;5095849;28;20070;-68
2021/11/08 11:04:58;;;;;;;9.20;1.20;;;13.20;99.90;;;;;;5095403;28;20032;-68
2021/11/08 11:07:24;;;;;;;9.43;1.85;;;13.10;99.90;;;;;;5075640;28;20127;-68
2021/11/08 11:09:54;;;;;;;11.98;2.03;;;12.80;99.90;;;;;;5075814;28;20024;-67
2021/11/08 11:12:23;;;;;;;8.50;1.65;;;12.60;99.90;;;;;;5075844;28;20111;-68
2021/11/08 11:14:56;;;;;;;6.03;1.30;;;12.40;99.90;;;;;;5080178;28;20032;-68
2021/11/08 11:17:27;;;;;;;8.30;1.65;;;12.30;99.90;;;;;;5085722;28;20025;-67
2021/11/08 11:20:09;;;;;;;8.70;1.23;;;12.20;99.90;;;;;;5080767;28;20031;-68
2021/11/08 11:22:39;;;;;;;9.82;1.73;;;12.10;99.90;;;;;;5083466;28;20032;-67
2021/11/08 11:25:07;;;;;;;7.78;1.85;;;11.90;99.90;;;;;;5078021;28;20105;-67
2021/11/08 11:27:46;;;;;;;4.88;1.02;;;11.70;99.90;;;;;;5085413;28;20048;-67
2021/11/08 11:30:32;;;;;;;7.10;1.23;;;11.70;99.90;;;;;;5083200;28;20074;-67
2021/11/08 11:32:59;;;;;;;13.70;1.30;;;11.50;99.90;;;;;;5080954;28;20029;-68
2021/11/08 11:35:30;;;;;;;7.18;1.45;;;11.30;99.90;;;;;;5086286;28;20042;-68
2021/11/08 11:38:02;;;;;;;5.57;1.05;;;11.20;99.90;;;;;;5078187;28;20020;-68
2021/11/08 11:40:30;;;;;;;7.40;1.33;;;11.10;99.90;;;;;;5087008;28;20031;-68
2021/11/08 11:43:02;;;;;;;3.47;1.58;;;11.20;99.90;;;;;;5086485;28;20024;-67
2021/11/08 11:45:41;;;;;;;6.75;1.55;;;11.20;99.90;;;;;;5113005;28;20020;-68
2021/11/08 11:48:07;;;;;;;7.55;1.52;;;11.10;99.90;;;;;;5115334;27;20023;-68
2021/11/08 11:50:35;;;;;;;12.50;2.88;;;11.10;99.90;;;;;;5115126;28;20023;-69
2021/11/08 11:53:04;;;;;;;8.38;2.72;;;11.00;99.90;;;;;;5115135;28;20024;-68
2021/11/08 11:55:32;;;;;;;10.60;2.85;;;10.90;99.90;;;;;;5114863;28;20085;-68
2021/11/08 11:58:00;;;;;;;9.90;2.40;;;10.90;99.90;;;;;;5114525;28;20027;-67
2021/11/08 12:00:28;;;;;;;7.00;1.95;;;11.00;99.90;;;;;;5114909;28;20356;-67
2021/11/08 12:02:55;;;;;;;7.80;1.52;;;11.00;99.90;;;;;;5114605;28;20019;-67
2021/11/08 12:05:22;;;;;;;7.57;2.17;;;11.10;99.90;;;;;;5114723;28;20110;-67
2021/11/08 12:07:54;;;;;;;5.65;1.30;;;11.10;99.90;;;;;;5114622;28;20119;-67
2021/11/08 12:10:20;;;;;;;9.02;1.55;;;11.10;99.90;;;;;;5115144;28;20016;-67
2021/11/08 12:12:46;;;;;;;7.57;1.80;;;11.10;99.90;;;;;;5114817;28;20012;-67
2021/11/08 12:15:16;;;;;;;5.15;1.25;;;11.10;99.90;;;;;;5114730;28;20062;-67
2021/11/08 12:17:47;;;;;;;4.07;1.08;;;11.10;99.90;;;;;;5114275;28;20091;-67
2021/11/08 12:20:16;;;;;;;9.07;1.38;;;11.00;99.90;;;;;;5115456;28;20462;-67
2021/11/08 12:22:43;;;;;;;11.90;2.53;;;10.90;99.90;;;;;;5115327;28;20371;-67
2021/11/08 12:25:11;;;;;;;8.55;2.50;;;10.90;99.90;;;;;;5114599;28;20026;-69
2021/11/08 12:27:42;;;;;;;10.48;3.80;;;10.90;99.90;;;;;;5114544;28;20069;-70
2021/11/08 12:30:17;;;;;;;6.82;2.38;;;10.80;99.90;;;;;;5114895;28;20059;-70
2021/11/08 12:32:55;;;;;;;12.73;2.55;;;10.80;99.90;;;;;;5115053;28;20046;-70
2021/11/08 12:35:30;;;;;;;6.60;2.10;;;10.80;99.90;;;;;;5114771;28;20039;-70
2021/11/08 12:37:56;;;;;;;5.68;1.55;;;10.90;99.90;;;;;;5114773;28;20031;-70
2021/11/08 12:40:33;;;;;;;6.32;1.23;;;10.90;99.90;;;;;;5114470;28;20020;-70
2021/11/08 12:42:59;;;;;;;4.85;1.45;;;11.00;99.90;;;;;;5115038;28;20024;-71
2021/11/08 12:45:28;;;;;;;6.57;1.30;;;11.10;99.90;;;;;;5097215;28;20050;-70
2021/11/08 12:47:59;;;;;;;7.63;1.77;;;11.20;99.90;;;;;;5074253;28;20052;-70
2021/11/08 12:50:41;;;;;;;5.85;1.30;;;11.40;99.90;;;;;;5077884;28;20071;-70
2021/11/08 12:53:18;;;;;;;6.28;1.55;;;11.50;99.90;;;;;;5094402;28;20077;-70
2021/11/08 12:55:44;;;;;;;6.93;1.23;;;11.60;99.90;;;;;;5093357;28;20058;-70
2021/11/08 12:58:11;;;;;;;8.80;0.95;;;11.70;99.90;;;;;;5094329;28;20055;-70
2021/11/08 13:00:40;;;;;;;5.75;1.95;;;11.80;99.90;;;;;;5096140;28;20029;-70
2021/11/08 13:03:14;;;;;;;4.35;1.08;;;11.80;99.90;;;;;;5113118;28;20027;-70
2021/11/08 13:05:46;;;;;;;8.98;1.17;;;11.70;99.90;;;;;;5111337;27;20106;-70
2021/11/08 13:08:20;;;;;;;8.10;2.10;;;11.60;99.90;;;;;;5093399;28;20081;-70
2021/11/08 13:11:15;;;;;;;10.20;1.60;;;11.40;99.90;;;;;;5093211;28;20042;-70
2021/11/08 13:13:55;;;;;;;8.85;1.48;;;11.20;99.90;;;;;;5094045;28;20020;-71
2021/11/08 13:16:31;;;;;;;7.10;1.10;;;11.10;99.90;;;;;;5090427;28;20023;-71
2021/11/08 13:19:03;;;;;;;3.83;1.23;;;10.90;99.90;;;;;;5094013;28;20035;-70
2021/11/08 13:21:29;;;;;;;4.22;1.20;;;10.80;99.90;;;;;;5082926;28;20055;-70
2021/11/08 13:23:55;;;;;;;9.48;1.55;;;10.70;99.90;;;;;;5091894;28;20043;-70
2021/11/08 13:26:21;;;;;;;4.13;1.00;;;10.70;99.90;;;;;;5148535;22;20057;-67
2021/11/08 13:28:47;;;;;;;6.72;1.25;;;10.70;99.90;;;;;;5134628;27;20094;-68
2021/11/08 13:31:14;;;;;;;9.98;1.60;;;10.70;99.90;;;;;;5132287;27;20102;-67
2021/11/08 13:33:44;;;;;;;2.10;0.70;;;10.70;99.90;;;;;;5134524;27;20139;-67
2021/11/08 13:36:13;;;;;;;4.00;1.08;;;10.70;99.90;;;;;;5130157;27;20044;-67
2021/11/08 13:38:55;;;;;;;7.35;1.13;;;10.60;99.90;;;;;;5114299;28;20028;-67
2021/11/08 13:41:27;;;;;;;7.05;1.17;;;10.60;99.90;;;;;;5126542;27;20084;-67
2021/11/08 13:43:59;;;;;;;2.85;0.98;;;10.50;99.90;;;;;;5134376;27;20077;-67
2021/11/08 13:46:35;;;;;;;3.22;0.70;;;10.50;99.90;;;;;;5129144;27;20042;-67
2021/11/08 13:49:07;;;;;;;3.33;0.60;;;10.40;99.90;;;;;;5134520;28;20023;-67
2021/11/08 13:51:36;;;;;;;2.47;0.50;;;10.40;99.90;;;;;;5125589;28;20390;-67
2021/11/08 13:54:04;;;;;;;14.70;1.67;;;10.30;99.90;;;;;;5113514;28;20059;-67
2021/11/08 13:56:39;;;;;;;5.38;0.98;;;10.30;99.90;;;;;;5120924;28;20461;-67
2021/11/08 13:59:25;;;;;;;5.38;2.20;;;10.20;99.90;;;;;;5092711;28;20030;-67
2021/11/08 14:02:04;;;;;;;6.63;2.03;;;10.00;99.90;;;;;;5093944;28;20024;-67
2021/11/08 14:04:32;;;;;;;13.38;2.70;;;10.00;99.90;;;;;;5113660;28;20038;-67
2021/11/08 14:06:57;;;;;;;8.63;2.63;;;9.90;99.90;;;;;;5113443;28;20032;-68
2021/11/08 14:09:24;;;;;;;29.73;23.45;;;9.90;99.90;;;;;;5127631;28;20114;-68
2021/11/08 14:11:54;;;;;;;17.65;10.45;;;9.90;99.90;;;;;;5121764;28;20076;-67
2021/11/08 14:14:22;;;;;;;12.02;5.05;;;10.00;99.90;;;;;;5113634;28;20074;-67
2021/11/08 14:16:51;;;;;;;16.15;9.88;;;10.10;99.90;;;;;;5119888;28;20023;-66
2021/11/08 14:19:19;;;;;;;10.82;3.45;;;10.10;99.90;;;;;;5133976;28;20482;-66
2021/11/08 14:21:47;;;;;;;6.40;3.85;;;10.20;99.90;;;;;;5133992;28;20031;-66
2021/11/08 14:24:15;;;;;;;28.65;10.15;;;10.20;99.90;;;;;;5133595;28;20027;-66
2021/11/08 14:26:57;;;;;;;37.67;12.00;;;10.20;99.90;;;;;;5111253;28;20453;-67
2021/11/08 14:29:29;;;;;;;29.30;9.60;;;10.20;99.90;;;;;;5107972;28;20372;-66